sensor_id;sensor_type;location;lat;lon;timestamp;pressure;altitude;pressure_sealevel;temperature;humidity
64352;BME280;50680;52.626;-8.668;2022-10-16T00:01:09;100192.81;;;6.58;100.00
64352;BME280;50680;52.626;-8.668;2022-10-16T00:03:39;100199.63;;;6.61;100.00
64352;BME280;50680;52.626;-8.668;2022-10-16T00:06:06;100195.66;;;6.71;100.00
64352;BME280;50680;52.626;-8.668;2022-10-16T00:08:34;100194.69;;;6.72;100.00
64352;BME280;50680;52.626;-8.668;2022-10-16T00:11:06;100205.72;;;6.77;100.00
64352;BME280;50680;52.626;-8.668;2022-10-16T00:13:35;100219.78;;;6.75;100.00
64352;BME280;50680;52.626;-8.668;2022-10-16T00:16:03;100223.34;;;6.72;100.00
64352;BME280;50680;52.626;-8.668;2022-10-16T00:18:30;100227.06;;;6.68;100.00
64352;BME280;50680;52.626;-8.668;2022-10-16T00:21:06;100241.13;;;6.64;100.00
64352;BME280;50680;52.626;-8.668;2022-10-16T00:23:33;100241.31;;;6.61;100.00
64352;BME280;50680;52.626;-8.668;2022-10-16T00:26:06;100238.84;;;6.58;100.00
64352;BME280;50680;52.626;-8.668;2022-10-16T00:28:34;100240.84;;;6.53;100.00
64352;BME280;50680;52.626;-8.668;2022-10-16T00:31:09;100242.97;;;6.45;100.00
64352;BME280;50680;52.626;-8.668;2022-10-16T00:33:38;100255.72;;;6.33;100.00
64352;BME280;50680;52.626;-8.668;2022-10-16T00:36:07;100258.97;;;6.19;100.00
64352;BME280;50680;52.626;-8.668;2022-10-16T00:38:34;100263.16;;;6.05;100.00
64352;BME280;50680;52.626;-8.668;2022-10-16T00:41:02;100266.44;;;5.89;100.00
64352;BME280;50680;52.626;-8.668;2022-10-16T00:46:04;100261.63;;;5.62;100.00
64352;BME280;50680;52.626;-8.668;2022-10-16T00:48:32;100260.31;;;5.54;100.00
64352;BME280;50680;52.626;-8.668;2022-10-16T00:50:59;100260.69;;;5.44;100.00
64352;BME280;50680;52.626;-8.668;2022-10-16T00:53:27;100262.03;;;5.34;100.00
64352;BME280;50680;52.626;-8.668;2022-10-16T00:55:54;100257.44;;;5.20;100.00
64352;BME280;50680;52.626;-8.668;2022-10-16T00:58:21;100269.66;;;5.18;100.00
64352;BME280;50680;52.626;-8.668;2022-10-16T01:00:48;100267.19;;;5.15;100.00
64352;BME280;50680;52.626;-8.668;2022-10-16T01:03:31;100270.72;;;5.14;100.00
64352;BME280;50680;52.626;-8.668;2022-10-16T01:17:16;100271.66;;;4.93;100.00
64352;BME280;50680;52.626;-8.668;2022-10-16T01:20:11;100277.69;;;4.93;100.00
64352;BME280;50680;52.626;-8.668;2022-10-16T01:23:04;100283.16;;;4.87;100.00
64352;BME280;50680;52.626;-8.668;2022-10-16T01:25:46;100286.69;;;4.84;100.00
64352;BME280;50680;52.626;-8.668;2022-10-16T01:28:21;100285.28;;;4.77;100.00
64352;BME280;50680;52.626;-8.668;2022-10-16T01:30:51;100284.78;;;4.69;100.00
64352;BME280;50680;52.626;-8.668;2022-10-16T01:33:27;100290.22;;;4.63;100.00
64352;BME280;50680;52.626;-8.668;2022-10-16T01:35:59;100292.28;;;4.55;100.00
64352;BME280;50680;52.626;-8.668;2022-10-16T01:38:36;100298.56;;;4.49;100.00
64352;BME280;50680;52.626;-8.668;2022-10-16T01:41:15;100300.50;;;4.44;100.00
64352;BME280;50680;52.626;-8.668;2022-10-16T01:43:47;100303.16;;;4.42;100.00
64352;BME280;50680;52.626;-8.668;2022-10-16T01:46:19;100274.69;;;4.19;100.00
64352;BME280;50680;52.626;-8.668;2022-10-16T01:48:48;100310.94;;;4.42;100.00
64352;BME280;50680;52.626;-8.668;2022-10-16T01:51:17;100317.06;;;4.41;100.00
64352;BME280;50680;52.626;-8.668;2022-10-16T01:53:49;100310.13;;;4.42;100.00
64352;BME280;50680;52.626;-8.668;2022-10-16T01:56:20;100309.34;;;4.40;100.00
64352;BME280;50680;52.626;-8.668;2022-10-16T01:59:10;100307.69;;;4.37;100.00
64352;BME280;50680;52.626;-8.668;2022-10-16T02:01:40;100311.44;;;4.30;100.00
64352;BME280;50680;52.626;-8.668;2022-10-16T02:04:17;100313.59;;;4.19;100.00
64352;BME280;50680;52.626;-8.668;2022-10-16T02:06:45;100321.53;;;4.16;100.00
64352;BME280;50680;52.626;-8.668;2022-10-16T02:09:12;100325.28;;;4.08;100.00
64352;BME280;50680;52.626;-8.668;2022-10-16T02:11:43;100331.47;;;4.04;100.00
64352;BME280;50680;52.626;-8.668;2022-10-16T02:14:10;100322.84;;;4.04;100.00
64352;BME280;50680;52.626;-8.668;2022-10-16T02:16:45;100329.19;;;3.97;100.00
64352;BME280;50680;52.626;-8.668;2022-10-16T02:19:13;100325.31;;;3.85;100.00
64352;BME280;50680;52.626;-8.668;2022-10-16T02:24:33;100348.91;;;3.77;100.00
64352;BME280;50680;52.626;-8.668;2022-10-16T02:30:16;100364.28;;;3.58;100.00
64352;BME280;50680;52.626;-8.668;2022-10-16T02:32:47;100363.75;;;3.50;100.00
64352;BME280;50680;52.626;-8.668;2022-10-16T02:35:17;100367.38;;;3.44;100.00
64352;BME280;50680;52.626;-8.668;2022-10-16T02:37:46;100370.09;;;3.41;100.00
64352;BME280;50680;52.626;-8.668;2022-10-16T02:40:15;100373.63;;;3.38;100.00
64352;BME280;50680;52.626;-8.668;2022-10-16T02:42:51;100374.75;;;3.31;100.00
64352;BME280;50680;52.626;-8.668;2022-10-16T02:45:19;100377.44;;;3.28;100.00
64352;BME280;50680;52.626;-8.668;2022-10-16T02:47:46;100377.66;;;3.22;100.00
64352;BME280;50680;52.626;-8.668;2022-10-16T02:50:13;100382.16;;;3.17;100.00
64352;BME280;50680;52.626;-8.668;2022-10-16T02:52:41;100380.59;;;3.11;100.00
64352;BME280;50680;52.626;-8.668;2022-10-16T02:55:08;100379.06;;;3.06;100.00
64352;BME280;50680;52.626;-8.668;2022-10-16T02:57:35;100385.31;;;3.00;100.00
64352;BME280;50680;52.626;-8.668;2022-10-16T03:00:05;100384.56;;;2.96;100.00
64352;BME280;50680;52.626;-8.668;2022-10-16T03:02:32;100399.00;;;3.04;100.00
64352;BME280;50680;52.626;-8.668;2022-10-16T03:04:59;100408.25;;;3.11;100.00
64352;BME280;50680;52.626;-8.668;2022-10-16T03:07:26;100409.84;;;3.15;100.00
64352;BME280;50680;52.626;-8.668;2022-10-16T03:09:53;100423.66;;;3.15;100.00
64352;BME280;50680;52.626;-8.668;2022-10-16T03:12:21;100425.31;;;3.16;100.00
64352;BME280;50680;52.626;-8.668;2022-10-16T03:14:48;100435.53;;;3.21;100.00
64352;BME280;50680;52.626;-8.668;2022-10-16T03:17:15;100439.16;;;3.17;100.00
64352;BME280;50680;52.626;-8.668;2022-10-16T03:19:43;100436.59;;;3.15;100.00
64352;BME280;50680;52.626;-8.668;2022-10-16T03:22:10;100438.41;;;3.13;100.00
64352;BME280;50680;52.626;-8.668;2022-10-16T03:24:37;100430.81;;;3.07;100.00
64352;BME280;50680;52.626;-8.668;2022-10-16T03:27:04;100435.84;;;3.12;100.00
64352;BME280;50680;52.626;-8.668;2022-10-16T03:29:31;100428.50;;;2.99;100.00
64352;BME280;50680;52.626;-8.668;2022-10-16T03:32:00;100436.78;;;3.09;100.00
64352;BME280;50680;52.626;-8.668;2022-10-16T03:34:27;100435.13;;;3.08;100.00
64352;BME280;50680;52.626;-8.668;2022-10-16T03:36:54;100422.25;;;3.05;100.00
64352;BME280;50680;52.626;-8.668;2022-10-16T03:39:21;100422.34;;;3.02;100.00
64352;BME280;50680;52.626;-8.668;2022-10-16T03:41:48;100417.44;;;2.94;100.00
64352;BME280;50680;52.626;-8.668;2022-10-16T03:44:15;100424.50;;;2.89;100.00
64352;BME280;50680;52.626;-8.668;2022-10-16T03:46:42;100425.53;;;2.83;100.00
64352;BME280;50680;52.626;-8.668;2022-10-16T03:49:09;100424.91;;;2.77;100.00
64352;BME280;50680;52.626;-8.668;2022-10-16T03:51:36;100428.50;;;2.71;100.00
64352;BME280;50680;52.626;-8.668;2022-10-16T03:54:03;100428.75;;;2.63;100.00
64352;BME280;50680;52.626;-8.668;2022-10-16T03:56:30;100425.56;;;2.55;100.00
64352;BME280;50680;52.626;-8.668;2022-10-16T03:58:56;100431.78;;;2.50;100.00
64352;BME280;50680;52.626;-8.668;2022-10-16T04:01:24;100436.91;;;2.51;100.00
64352;BME280;50680;52.626;-8.668;2022-10-16T04:03:51;100440.34;;;2.52;100.00
64352;BME280;50680;52.626;-8.668;2022-10-16T04:06:18;100449.66;;;2.57;100.00
64352;BME280;50680;52.626;-8.668;2022-10-16T04:08:45;100451.44;;;2.55;100.00
64352;BME280;50680;52.626;-8.668;2022-10-16T04:11:12;100452.56;;;2.47;100.00
64352;BME280;50680;52.626;-8.668;2022-10-16T04:13:38;100458.94;;;2.35;100.00
64352;BME280;50680;52.626;-8.668;2022-10-16T04:16:05;100464.47;;;2.22;100.00
64352;BME280;50680;52.626;-8.668;2022-10-16T04:18:32;100464.84;;;2.10;100.00
64352;BME280;50680;52.626;-8.668;2022-10-16T04:21:04;100466.84;;;1.99;100.00
64352;BME280;50680;52.626;-8.668;2022-10-16T04:23:31;100455.00;;;1.92;100.00
64352;BME280;50680;52.626;-8.668;2022-10-16T04:25:59;100455.94;;;1.89;100.00
64352;BME280;50680;52.626;-8.668;2022-10-16T04:28:27;100461.94;;;1.90;100.00
64352;BME280;50680;52.626;-8.668;2022-10-16T04:30:54;100460.97;;;1.94;100.00
64352;BME280;50680;52.626;-8.668;2022-10-16T04:33:21;100468.72;;;1.94;100.00
64352;BME280;50680;52.626;-8.668;2022-10-16T04:35:48;100469.56;;;1.96;100.00
64352;BME280;50680;52.626;-8.668;2022-10-16T04:38:15;100464.38;;;1.96;100.00
64352;BME280;50680;52.626;-8.668;2022-10-16T04:40:42;100472.13;;;1.96;100.00
64352;BME280;50680;52.626;-8.668;2022-10-16T04:43:09;100472.97;;;1.96;100.00
64352;BME280;50680;52.626;-8.668;2022-10-16T04:45:37;100482.53;;;1.94;100.00
64352;BME280;50680;52.626;-8.668;2022-10-16T04:48:04;100482.56;;;1.93;100.00
64352;BME280;50680;52.626;-8.668;2022-10-16T04:50:31;100479.06;;;1.94;100.00
64352;BME280;50680;52.626;-8.668;2022-10-16T04:52:57;100485.06;;;1.96;100.00
64352;BME280;50680;52.626;-8.668;2022-10-16T04:55:24;100485.97;;;1.93;100.00
64352;BME280;50680;52.626;-8.668;2022-10-16T04:57:51;100493.63;;;1.98;100.00
64352;BME280;50680;52.626;-8.668;2022-10-16T05:00:18;100509.94;;;2.00;100.00
64352;BME280;50680;52.626;-8.668;2022-10-16T05:02:45;100517.78;;;1.97;100.00
64352;BME280;50680;52.626;-8.668;2022-10-16T05:05:12;100520.44;;;1.94;100.00
64352;BME280;50680;52.626;-8.668;2022-10-16T05:07:40;100527.38;;;1.92;100.00
64352;BME280;50680;52.626;-8.668;2022-10-16T05:10:07;100522.22;;;1.92;100.00
64352;BME280;50680;52.626;-8.668;2022-10-16T05:12:34;100528.25;;;1.92;100.00
64352;BME280;50680;52.626;-8.668;2022-10-16T05:15:01;100536.03;;;1.91;100.00
64352;BME280;50680;52.626;-8.668;2022-10-16T05:17:28;100531.69;;;1.93;100.00
64352;BME280;50680;52.626;-8.668;2022-10-16T05:19:55;100531.63;;;1.94;100.00
64352;BME280;50680;52.626;-8.668;2022-10-16T05:22:22;100535.19;;;1.90;100.00
64352;BME280;50680;52.626;-8.668;2022-10-16T05:24:49;100535.34;;;1.84;100.00
64352;BME280;50680;52.626;-8.668;2022-10-16T05:27:16;100530.19;;;1.84;100.00
64352;BME280;50680;52.626;-8.668;2022-10-16T05:29:47;100539.53;;;1.88;100.00
64352;BME280;50680;52.626;-8.668;2022-10-16T05:32:16;100535.94;;;1.94;100.00
64352;BME280;50680;52.626;-8.668;2022-10-16T05:34:44;100531.78;;;1.88;100.00
64352;BME280;50680;52.626;-8.668;2022-10-16T05:37:11;100537.00;;;1.86;100.00
64352;BME280;50680;52.626;-8.668;2022-10-16T05:39:39;100532.81;;;1.82;100.00
64352;BME280;50680;52.626;-8.668;2022-10-16T05:42:06;100531.88;;;1.85;100.00
64352;BME280;50680;52.626;-8.668;2022-10-16T05:44:33;100535.13;;;1.92;100.00
64352;BME280;50680;52.626;-8.668;2022-10-16T05:47:04;100545.75;;;1.81;100.00
64352;BME280;50680;52.626;-8.668;2022-10-16T05:49:31;100542.16;;;1.86;100.00
64352;BME280;50680;52.626;-8.668;2022-10-16T05:52:02;100553.81;;;2.03;100.00
64352;BME280;50680;52.626;-8.668;2022-10-16T05:54:28;100558.72;;;2.12;100.00
64352;BME280;50680;52.626;-8.668;2022-10-16T05:56:55;100568.88;;;2.20;100.00
64352;BME280;50680;52.626;-8.668;2022-10-16T05:59:22;100573.13;;;2.22;100.00
64352;BME280;50680;52.626;-8.668;2022-10-16T06:01:49;100579.88;;;2.26;100.00
64352;BME280;50680;52.626;-8.668;2022-10-16T06:04:16;100586.63;;;2.34;100.00
64352;BME280;50680;52.626;-8.668;2022-10-16T06:06:43;100587.19;;;2.43;100.00
64352;BME280;50680;52.626;-8.668;2022-10-16T06:09:10;100574.22;;;2.45;100.00
64352;BME280;50680;52.626;-8.668;2022-10-16T06:11:37;100585.22;;;2.53;100.00
64352;BME280;50680;52.626;-8.668;2022-10-16T06:14:04;100575.94;;;2.46;100.00
64352;BME280;50680;52.626;-8.668;2022-10-16T06:16:35;100573.94;;;2.54;100.00
64352;BME280;50680;52.626;-8.668;2022-10-16T06:19:02;100581.63;;;2.57;100.00
64352;BME280;50680;52.626;-8.668;2022-10-16T06:21:33;100579.84;;;2.59;100.00
64352;BME280;50680;52.626;-8.668;2022-10-16T06:24:00;100562.56;;;2.61;100.00
64352;BME280;50680;52.626;-8.668;2022-10-16T06:26:29;100562.31;;;2.69;100.00
64352;BME280;50680;52.626;-8.668;2022-10-16T06:28:57;100551.88;;;2.72;100.00
64352;BME280;50680;52.626;-8.668;2022-10-16T06:31:24;100550.94;;;2.75;100.00
64352;BME280;50680;52.626;-8.668;2022-10-16T06:33:57;100546.41;;;2.81;100.00
64352;BME280;50680;52.626;-8.668;2022-10-16T06:36:25;100553.22;;;2.86;100.00
64352;BME280;50680;52.626;-8.668;2022-10-16T06:38:52;100575.53;;;2.90;100.00
64352;BME280;50680;52.626;-8.668;2022-10-16T06:41:21;100591.81;;;2.93;100.00
64352;BME280;50680;52.626;-8.668;2022-10-16T06:43:48;100597.84;;;2.94;100.00
64352;BME280;50680;52.626;-8.668;2022-10-16T06:46:17;100610.69;;;2.97;100.00
64352;BME280;50680;52.626;-8.668;2022-10-16T06:48:45;100600.31;;;2.98;100.00
64352;BME280;50680;52.626;-8.668;2022-10-16T06:51:15;100608.78;;;3.04;100.00
64352;BME280;50680;52.626;-8.668;2022-10-16T06:53:45;100612.97;;;3.08;100.00
64352;BME280;50680;52.626;-8.668;2022-10-16T06:56:30;100616.31;;;3.11;100.00
64352;BME280;50680;52.626;-8.668;2022-10-16T06:58:58;100622.41;;;3.10;100.00
64352;BME280;50680;52.626;-8.668;2022-10-16T07:01:26;100639.88;;;3.04;100.00
64352;BME280;50680;52.626;-8.668;2022-10-16T07:03:53;100633.09;;;2.99;100.00
64352;BME280;50680;52.626;-8.668;2022-10-16T07:06:21;100627.78;;;3.03;100.00
64352;BME280;50680;52.626;-8.668;2022-10-16T07:08:49;100620.69;;;3.09;100.00
64352;BME280;50680;52.626;-8.668;2022-10-16T07:11:21;100614.63;;;3.10;100.00
64352;BME280;50680;52.626;-8.668;2022-10-16T07:13:49;100617.22;;;3.10;100.00
64352;BME280;50680;52.626;-8.668;2022-10-16T07:16:27;100622.25;;;3.15;100.00
64352;BME280;50680;52.626;-8.668;2022-10-16T07:18:55;100619.56;;;3.18;100.00
64352;BME280;50680;52.626;-8.668;2022-10-16T07:21:30;100621.97;;;3.24;100.00
64352;BME280;50680;52.626;-8.668;2022-10-16T07:24:00;100630.63;;;3.23;100.00
64352;BME280;50680;52.626;-8.668;2022-10-16T07:26:31;100614.00;;;3.30;100.00
64352;BME280;50680;52.626;-8.668;2022-10-16T07:28:59;100620.66;;;3.39;100.00
64352;BME280;50680;52.626;-8.668;2022-10-16T07:31:27;100624.69;;;3.48;100.00
64352;BME280;50680;52.626;-8.668;2022-10-16T07:33:54;100619.25;;;3.57;100.00
64352;BME280;50680;52.626;-8.668;2022-10-16T07:36:21;100613.00;;;3.63;100.00
64352;BME280;50680;52.626;-8.668;2022-10-16T07:38:48;100606.75;;;3.68;100.00
64352;BME280;50680;52.626;-8.668;2022-10-16T07:41:20;100610.00;;;3.75;100.00
64352;BME280;50680;52.626;-8.668;2022-10-16T07:43:49;100602.13;;;3.78;100.00
64352;BME280;50680;52.626;-8.668;2022-10-16T07:46:18;100604.59;;;3.83;100.00
64352;BME280;50680;52.626;-8.668;2022-10-16T07:48:45;100613.16;;;3.85;100.00
64352;BME280;50680;52.626;-8.668;2022-10-16T07:51:15;100612.19;;;3.87;100.00
64352;BME280;50680;52.626;-8.668;2022-10-16T07:53:43;100615.59;;;3.89;100.00
64352;BME280;50680;52.626;-8.668;2022-10-16T07:56:10;100612.09;;;3.90;100.00
64352;BME280;50680;52.626;-8.668;2022-10-16T07:58:38;100588.34;;;3.78;100.00
64352;BME280;50680;52.626;-8.668;2022-10-16T08:01:11;100621.53;;;3.93;100.00
64352;BME280;50680;52.626;-8.668;2022-10-16T08:03:38;100609.25;;;3.98;100.00
64352;BME280;50680;52.626;-8.668;2022-10-16T08:06:05;100600.47;;;4.02;100.00
64352;BME280;50680;52.626;-8.668;2022-10-16T08:08:32;100596.03;;;4.06;100.00
64352;BME280;50680;52.626;-8.668;2022-10-16T08:10:59;100603.81;;;4.06;100.00
64352;BME280;50680;52.626;-8.668;2022-10-16T08:13:26;100623.50;;;4.11;100.00
64352;BME280;50680;52.626;-8.668;2022-10-16T08:15:53;100633.78;;;4.14;100.00
64352;BME280;50680;52.626;-8.668;2022-10-16T08:18:20;100629.38;;;4.17;100.00
64352;BME280;50680;52.626;-8.668;2022-10-16T08:20:47;100639.59;;;4.21;100.00
64352;BME280;50680;52.626;-8.668;2022-10-16T08:23:14;100638.59;;;4.25;100.00
64352;BME280;50680;52.626;-8.668;2022-10-16T08:25:41;100631.53;;;4.29;100.00
64352;BME280;50680;52.626;-8.668;2022-10-16T08:28:09;100638.34;;;4.33;100.00
64352;BME280;50680;52.626;-8.668;2022-10-16T08:30:37;100643.34;;;4.38;100.00
64352;BME280;50680;52.626;-8.668;2022-10-16T08:33:04;100649.19;;;4.44;100.00
64352;BME280;50680;52.626;-8.668;2022-10-16T08:35:33;100637.84;;;4.47;100.00
64352;BME280;50680;52.626;-8.668;2022-10-16T08:38:00;100645.25;;;4.58;100.00
64352;BME280;50680;52.626;-8.668;2022-10-16T08:40:31;100632.97;;;4.63;100.00
64352;BME280;50680;52.626;-8.668;2022-10-16T08:51:05;100632.94;;;4.88;100.00
64352;BME280;50680;52.626;-8.668;2022-10-16T08:53:54;100638.72;;;4.95;100.00
64352;BME280;50680;52.626;-8.668;2022-10-16T08:56:22;100624.72;;;4.99;100.00
64352;BME280;50680;52.626;-8.668;2022-10-16T08:58:51;100633.81;;;5.11;100.00
64352;BME280;50680;52.626;-8.668;2022-10-16T09:01:32;100639.69;;;5.16;100.00
64352;BME280;50680;52.626;-8.668;2022-10-16T09:07:04;100636.72;;;5.25;100.00
64352;BME280;50680;52.626;-8.668;2022-10-16T09:09:58;100627.06;;;5.28;100.00
64352;BME280;50680;52.626;-8.668;2022-10-16T09:18:40;100612.53;;;5.45;100.00
64352;BME280;50680;52.626;-8.668;2022-10-16T09:21:19;100619.22;;;5.52;100.00
64352;BME280;50680;52.626;-8.668;2022-10-16T09:23:48;100616.28;;;5.60;100.00
64352;BME280;50680;52.626;-8.668;2022-10-16T09:26:16;100611.75;;;5.65;100.00
64352;BME280;50680;52.626;-8.668;2022-10-16T09:28:46;100608.03;;;5.71;100.00
64352;BME280;50680;52.626;-8.668;2022-10-16T09:31:18;100601.88;;;5.73;100.00
64352;BME280;50680;52.626;-8.668;2022-10-16T09:33:52;100597.53;;;5.74;100.00
64352;BME280;50680;52.626;-8.668;2022-10-16T09:36:20;100603.44;;;5.77;100.00
64352;BME280;50680;52.626;-8.668;2022-10-16T09:38:49;100611.53;;;5.92;100.00
64352;BME280;50680;52.626;-8.668;2022-10-16T09:41:21;100611.28;;;5.98;100.00
64352;BME280;50680;52.626;-8.668;2022-10-16T09:44:00;100588.72;;;5.98;100.00
64352;BME280;50680;52.626;-8.668;2022-10-16T09:48:59;100586.09;;;6.19;100.00
64352;BME280;50680;52.626;-8.668;2022-10-16T09:54:23;100577.69;;;6.33;100.00
64352;BME280;50680;52.626;-8.668;2022-10-16T09:56:49;100572.81;;;6.46;100.00
64352;BME280;50680;52.626;-8.668;2022-10-16T09:59:21;100580.19;;;6.55;100.00
64352;BME280;50680;52.626;-8.668;2022-10-16T10:01:54;100585.00;;;6.64;100.00
64352;BME280;50680;52.626;-8.668;2022-10-16T10:04:23;100582.88;;;6.72;100.00
64352;BME280;50680;52.626;-8.668;2022-10-16T10:06:53;100586.97;;;6.78;100.00
64352;BME280;50680;52.626;-8.668;2022-10-16T10:09:26;100591.06;;;6.84;100.00
64352;BME280;50680;52.626;-8.668;2022-10-16T10:12:01;100573.59;;;6.86;100.00
64352;BME280;50680;52.626;-8.668;2022-10-16T10:14:44;100577.63;;;6.93;100.00
64352;BME280;50680;52.626;-8.668;2022-10-16T10:17:16;100576.53;;;6.97;100.00
64352;BME280;50680;52.626;-8.668;2022-10-16T10:33:14;100587.66;;;7.20;100.00
64352;BME280;50680;52.626;-8.668;2022-10-16T10:44:26;100565.63;;;7.44;100.00
64352;BME280;50680;52.626;-8.668;2022-10-16T10:47:05;100561.03;;;7.49;100.00
64352;BME280;50680;52.626;-8.668;2022-10-16T10:52:31;100559.75;;;7.58;100.00
64352;BME280;50680;52.626;-8.668;2022-10-16T10:55:09;100552.69;;;7.60;100.00
64352;BME280;50680;52.626;-8.668;2022-10-16T10:58:31;100542.94;;;7.64;100.00
64352;BME280;50680;52.626;-8.668;2022-10-16T11:03:59;100530.16;;;7.75;100.00
64352;BME280;50680;52.626;-8.668;2022-10-16T11:06:48;100524.72;;;7.80;100.00
64352;BME280;50680;52.626;-8.668;2022-10-16T11:09:21;100507.78;;;7.71;100.00
64352;BME280;50680;52.626;-8.668;2022-10-16T11:12:01;100515.66;;;7.69;100.00
64352;BME280;50680;52.626;-8.668;2022-10-16T11:17:32;100520.06;;;7.69;100.00
64352;BME280;50680;52.626;-8.668;2022-10-16T11:20:21;100518.59;;;7.63;100.00
64352;BME280;50680;52.626;-8.668;2022-10-16T11:23:00;100513.13;;;7.68;100.00
64352;BME280;50680;52.626;-8.668;2022-10-16T11:25:31;100500.88;;;7.70;100.00
64352;BME280;50680;52.626;-8.668;2022-10-16T11:28:33;100506.19;;;7.68;100.00
64352;BME280;50680;52.626;-8.668;2022-10-16T11:33:46;100490.19;;;7.75;100.00
64352;BME280;50680;52.626;-8.668;2022-10-16T11:36:33;100493.19;;;7.67;100.00
64352;BME280;50680;52.626;-8.668;2022-10-16T11:42:08;100493.81;;;7.72;100.00
64352;BME280;50680;52.626;-8.668;2022-10-16T11:45:18;100509.22;;;7.77;100.00
64352;BME280;50680;52.626;-8.668;2022-10-16T11:48:12;100502.25;;;7.77;100.00
64352;BME280;50680;52.626;-8.668;2022-10-16T11:50:59;100497.31;;;7.88;100.00
64352;BME280;50680;52.626;-8.668;2022-10-16T11:54:02;100497.22;;;7.90;100.00
64352;BME280;50680;52.626;-8.668;2022-10-16T11:56:36;100488.31;;;7.94;100.00
64352;BME280;50680;52.626;-8.668;2022-10-16T12:10:32;100453.94;;;8.19;100.00
64352;BME280;50680;52.626;-8.668;2022-10-16T12:13:31;100427.81;;;8.19;100.00
64352;BME280;50680;52.626;-8.668;2022-10-16T12:18:44;100417.88;;;8.26;100.00
64352;BME280;50680;52.626;-8.668;2022-10-16T12:21:14;100419.38;;;8.30;100.00
64352;BME280;50680;52.626;-8.668;2022-10-16T12:23:53;100416.38;;;8.38;100.00
64352;BME280;50680;52.626;-8.668;2022-10-16T12:26:29;100407.66;;;8.37;100.00
64352;BME280;50680;52.626;-8.668;2022-10-16T12:29:12;100403.94;;;8.43;100.00
64352;BME280;50680;52.626;-8.668;2022-10-16T12:31:45;100390.06;;;8.41;100.00
64352;BME280;50680;52.626;-8.668;2022-10-16T12:34:41;100372.53;;;8.27;100.00
64352;BME280;50680;52.626;-8.668;2022-10-16T12:37:20;100389.59;;;8.34;100.00
64352;BME280;50680;52.626;-8.668;2022-10-16T12:39:48;100378.94;;;8.37;100.00
64352;BME280;50680;52.626;-8.668;2022-10-16T12:44:54;100383.69;;;8.62;100.00
64352;BME280;50680;52.626;-8.668;2022-10-16T12:49:59;100362.81;;;8.77;100.00
64352;BME280;50680;52.626;-8.668;2022-10-16T12:55:01;100364.34;;;8.81;100.00
64352;BME280;50680;52.626;-8.668;2022-10-16T12:57:37;100342.66;;;8.79;100.00
64352;BME280;50680;52.626;-8.668;2022-10-16T13:14:03;100276.78;;;8.88;100.00
64352;BME280;50680;52.626;-8.668;2022-10-16T13:20:34;100253.44;;;8.85;100.00
64352;BME280;50680;52.626;-8.668;2022-10-16T13:25:22;100221.69;;;8.91;100.00
64352;BME280;50680;52.626;-8.668;2022-10-16T13:28:01;100210.13;;;8.95;100.00
64352;BME280;50680;52.626;-8.668;2022-10-16T13:30:30;100201.22;;;8.98;100.00
64352;BME280;50680;52.626;-8.668;2022-10-16T13:33:07;100184.81;;;8.96;100.00
64352;BME280;50680;52.626;-8.668;2022-10-16T13:35:48;100181.00;;;9.01;100.00
64352;BME280;50680;52.626;-8.668;2022-10-16T13:38:18;100178.16;;;9.04;100.00
64352;BME280;50680;52.626;-8.668;2022-10-16T13:40:55;100168.25;;;9.10;100.00
64352;BME280;50680;52.626;-8.668;2022-10-16T13:46:05;100141.94;;;9.13;100.00
64352;BME280;50680;52.626;-8.668;2022-10-16T13:48:33;100143.69;;;9.27;100.00
64352;BME280;50680;52.626;-8.668;2022-10-16T13:51:19;100137.03;;;9.35;100.00
64352;BME280;50680;52.626;-8.668;2022-10-16T13:53:46;100122.13;;;9.50;100.00
64352;BME280;50680;52.626;-8.668;2022-10-16T13:56:19;100114.09;;;9.53;100.00
64352;BME280;50680;52.626;-8.668;2022-10-16T13:58:58;100107.19;;;9.65;100.00
64352;BME280;50680;52.626;-8.668;2022-10-16T14:01:33;100097.91;;;9.74;100.00
64352;BME280;50680;52.626;-8.668;2022-10-16T14:04:06;100100.50;;;9.74;100.00
64352;BME280;50680;52.626;-8.668;2022-10-16T14:06:35;100096.53;;;9.68;100.00
64352;BME280;50680;52.626;-8.668;2022-10-16T14:09:09;100092.72;;;9.59;100.00
64352;BME280;50680;52.626;-8.668;2022-10-16T14:11:47;100065.47;;;9.49;100.00
64352;BME280;50680;52.626;-8.668;2022-10-16T14:14:15;100070.72;;;9.49;100.00
64352;BME280;50680;52.626;-8.668;2022-10-16T14:16:43;100055.53;;;9.41;100.00
64352;BME280;50680;52.626;-8.668;2022-10-16T14:19:25;100049.75;;;9.36;100.00
64352;BME280;50680;52.626;-8.668;2022-10-16T14:21:53;100051.09;;;9.29;100.00
64352;BME280;50680;52.626;-8.668;2022-10-16T14:26:52;100026.06;;;9.25;100.00
64352;BME280;50680;52.626;-8.668;2022-10-16T14:29:22;100014.13;;;9.21;100.00
64352;BME280;50680;52.626;-8.668;2022-10-16T14:32:01;100007.53;;;9.15;100.00
64352;BME280;50680;52.626;-8.668;2022-10-16T14:34:34;99984.81;;;9.16;100.00
64352;BME280;50680;52.626;-8.668;2022-10-16T14:37:24;99981.38;;;9.15;100.00
64352;BME280;50680;52.626;-8.668;2022-10-16T14:39:53;99979.69;;;9.14;100.00
64352;BME280;50680;52.626;-8.668;2022-10-16T14:42:22;99971.00;;;9.14;100.00
64352;BME280;50680;52.626;-8.668;2022-10-16T14:44:53;99953.84;;;9.10;100.00
64352;BME280;50680;52.626;-8.668;2022-10-16T14:47:22;99944.31;;;9.09;100.00
64352;BME280;50680;52.626;-8.668;2022-10-16T14:49:54;99935.53;;;9.10;100.00
64352;BME280;50680;52.626;-8.668;2022-10-16T14:52:22;99913.84;;;8.95;100.00
64352;BME280;50680;52.626;-8.668;2022-10-16T14:54:49;99926.03;;;9.09;100.00
64352;BME280;50680;52.626;-8.668;2022-10-16T14:57:22;99914.69;;;9.08;100.00
64352;BME280;50680;52.626;-8.668;2022-10-16T14:59:50;99899.03;;;9.08;100.00
64352;BME280;50680;52.626;-8.668;2022-10-16T15:02:22;99888.56;;;9.08;100.00
64352;BME280;50680;52.626;-8.668;2022-10-16T15:04:52;99904.25;;;9.08;100.00
64352;BME280;50680;52.626;-8.668;2022-10-16T15:07:18;99895.56;;;9.08;100.00